Terminal Aerodrome Forecast
Issued by NWS

Home | Current Version | Previous Version | Text Only | Print | Product List | Glossary On
Versions: 1 2 3 4 5 6 7 8 9 10 11 12 13 14 15 16 17 18 19 20 21
000
FTUS41 KBOX 210524
TAFFMH
TAF
KFMH 210524Z 2106/2206 01019G33KT P6SM VCSH OVC005 WS020/03045KT
     FM210900 01020G38KT P6SM VCSH OVC005
     FM220000 03024G42KT P6SM -SHRA OVC010=

USA.gov is the U.S. government's official web portal to all federal, state and local government web resources and services.